sensor_id;sensor_type;location;lat;lon;timestamp;temperature;humidity
11035;DHT22;5571;48.110;-1.706;2023-07-02T00:01:46;16.20;99.90
11035;DHT22;5571;48.110;-1.706;2023-07-02T00:04:13;16.30;99.90
11035;DHT22;5571;48.110;-1.706;2023-07-02T00:06:45;16.20;99.90
11035;DHT22;5571;48.110;-1.706;2023-07-02T00:09:11;16.30;99.90
11035;DHT22;5571;48.110;-1.706;2023-07-02T00:11:38;16.30;99.90
11035;DHT22;5571;48.110;-1.706;2023-07-02T00:14:05;16.30;99.90
11035;DHT22;5571;48.110;-1.706;2023-07-02T00:16:30;16.20;99.90
11035;DHT22;5571;48.110;-1.706;2023-07-02T00:18:56;16.20;99.90
11035;DHT22;5571;48.110;-1.706;2023-07-02T00:21:22;16.20;99.90
11035;DHT22;5571;48.110;-1.706;2023-07-02T00:23:57;16.10;99.90
11035;DHT22;5571;48.110;-1.706;2023-07-02T00:26:27;16.00;99.90
11035;DHT22;5571;48.110;-1.706;2023-07-02T00:28:53;15.80;99.90
11035;DHT22;5571;48.110;-1.706;2023-07-02T00:31:19;15.80;99.90
11035;DHT22;5571;48.110;-1.706;2023-07-02T00:33:45;15.70;99.90
11035;DHT22;5571;48.110;-1.706;2023-07-02T00:36:11;15.60;99.90
11035;DHT22;5571;48.110;-1.706;2023-07-02T00:38:45;15.60;99.90
11035;DHT22;5571;48.110;-1.706;2023-07-02T00:41:11;15.60;99.90
11035;DHT22;5571;48.110;-1.706;2023-07-02T00:43:37;15.60;99.90
11035;DHT22;5571;48.110;-1.706;2023-07-02T00:46:10;15.50;99.90
11035;DHT22;5571;48.110;-1.706;2023-07-02T00:48:38;15.50;99.90
11035;DHT22;5571;48.110;-1.706;2023-07-02T00:51:04;15.50;99.90
11035;DHT22;5571;48.110;-1.706;2023-07-02T00:53:29;15.60;99.90
11035;DHT22;5571;48.110;-1.706;2023-07-02T00:55:55;15.50;99.90
11035;DHT22;5571;48.110;-1.706;2023-07-02T00:58:21;15.40;99.90
11035;DHT22;5571;48.110;-1.706;2023-07-02T01:00:47;15.40;99.90
11035;DHT22;5571;48.110;-1.706;2023-07-02T01:03:12;15.40;99.90
11035;DHT22;5571;48.110;-1.706;2023-07-02T01:05:38;15.30;99.90
11035;DHT22;5571;48.110;-1.706;2023-07-02T01:08:07;15.30;99.90
11035;DHT22;5571;48.110;-1.706;2023-07-02T01:10:33;15.30;99.90
11035;DHT22;5571;48.110;-1.706;2023-07-02T01:13:04;15.30;99.90
11035;DHT22;5571;48.110;-1.706;2023-07-02T01:15:31;15.30;99.90
11035;DHT22;5571;48.110;-1.706;2023-07-02T01:17:57;15.30;99.90
11035;DHT22;5571;48.110;-1.706;2023-07-02T01:20:24;15.30;99.90
11035;DHT22;5571;48.110;-1.706;2023-07-02T01:22:50;15.30;99.90
11035;DHT22;5571;48.110;-1.706;2023-07-02T01:25:19;15.20;99.90
11035;DHT22;5571;48.110;-1.706;2023-07-02T01:27:50;15.20;99.90
11035;DHT22;5571;48.110;-1.706;2023-07-02T01:30:17;15.10;99.90
11035;DHT22;5571;48.110;-1.706;2023-07-02T01:32:42;15.10;99.90
11035;DHT22;5571;48.110;-1.706;2023-07-02T01:35:08;15.10;99.90
11035;DHT22;5571;48.110;-1.706;2023-07-02T01:37:34;15.20;99.90
11035;DHT22;5571;48.110;-1.706;2023-07-02T01:40:03;15.20;99.90
11035;DHT22;5571;48.110;-1.706;2023-07-02T01:42:31;15.30;99.90
11035;DHT22;5571;48.110;-1.706;2023-07-02T01:44:58;15.30;99.90
11035;DHT22;5571;48.110;-1.706;2023-07-02T01:47:23;15.30;99.90
11035;DHT22;5571;48.110;-1.706;2023-07-02T01:49:49;15.40;99.90
11035;DHT22;5571;48.110;-1.706;2023-07-02T01:52:15;15.40;99.90
11035;DHT22;5571;48.110;-1.706;2023-07-02T01:54:42;15.30;99.90
11035;DHT22;5571;48.110;-1.706;2023-07-02T01:57:08;15.30;99.90
11035;DHT22;5571;48.110;-1.706;2023-07-02T01:59:34;15.30;99.90
11035;DHT22;5571;48.110;-1.706;2023-07-02T02:01:59;15.20;99.90
11035;DHT22;5571;48.110;-1.706;2023-07-02T02:04:25;15.20;99.90
11035;DHT22;5571;48.110;-1.706;2023-07-02T02:06:51;15.10;99.90
11035;DHT22;5571;48.110;-1.706;2023-07-02T02:09:17;15.00;99.90
11035;DHT22;5571;48.110;-1.706;2023-07-02T02:11:45;14.90;99.90
11035;DHT22;5571;48.110;-1.706;2023-07-02T02:14:11;15.00;99.90
11035;DHT22;5571;48.110;-1.706;2023-07-02T02:16:37;15.10;99.90
11035;DHT22;5571;48.110;-1.706;2023-07-02T02:19:03;15.10;99.90
11035;DHT22;5571;48.110;-1.706;2023-07-02T02:21:29;15.20;99.90
11035;DHT22;5571;48.110;-1.706;2023-07-02T02:23:55;15.30;99.90
11035;DHT22;5571;48.110;-1.706;2023-07-02T02:26:21;15.30;99.90
11035;DHT22;5571;48.110;-1.706;2023-07-02T02:28:48;15.30;99.90
11035;DHT22;5571;48.110;-1.706;2023-07-02T02:31:14;15.20;99.90
11035;DHT22;5571;48.110;-1.706;2023-07-02T02:33:40;15.10;99.90
11035;DHT22;5571;48.110;-1.706;2023-07-02T02:36:06;15.10;99.90
11035;DHT22;5571;48.110;-1.706;2023-07-02T02:38:31;15.10;99.90
11035;DHT22;5571;48.110;-1.706;2023-07-02T02:40:57;15.00;99.90
11035;DHT22;5571;48.110;-1.706;2023-07-02T02:43:22;15.00;99.90
11035;DHT22;5571;48.110;-1.706;2023-07-02T02:45:48;15.10;99.90
11035;DHT22;5571;48.110;-1.706;2023-07-02T02:48:14;15.00;99.90
11035;DHT22;5571;48.110;-1.706;2023-07-02T02:50:39;14.90;99.90
11035;DHT22;5571;48.110;-1.706;2023-07-02T02:53:08;14.80;99.90
11035;DHT22;5571;48.110;-1.706;2023-07-02T02:55:36;14.70;99.90
11035;DHT22;5571;48.110;-1.706;2023-07-02T02:58:01;14.60;99.90
11035;DHT22;5571;48.110;-1.706;2023-07-02T03:00:27;14.60;99.90
11035;DHT22;5571;48.110;-1.706;2023-07-02T03:02:53;14.60;99.90
11035;DHT22;5571;48.110;-1.706;2023-07-02T03:05:18;14.70;99.90
11035;DHT22;5571;48.110;-1.706;2023-07-02T03:07:44;14.70;99.90
11035;DHT22;5571;48.110;-1.706;2023-07-02T03:10:09;14.70;99.90
11035;DHT22;5571;48.110;-1.706;2023-07-02T03:12:35;14.80;99.90
11035;DHT22;5571;48.110;-1.706;2023-07-02T03:15:01;14.80;99.90
11035;DHT22;5571;48.110;-1.706;2023-07-02T03:17:26;14.80;99.90
11035;DHT22;5571;48.110;-1.706;2023-07-02T03:19:52;14.80;99.90
11035;DHT22;5571;48.110;-1.706;2023-07-02T03:22:18;14.90;99.90
11035;DHT22;5571;48.110;-1.706;2023-07-02T03:24:44;14.80;99.90
11035;DHT22;5571;48.110;-1.706;2023-07-02T03:27:09;14.80;99.90
11035;DHT22;5571;48.110;-1.706;2023-07-02T03:29:35;14.70;99.90
11035;DHT22;5571;48.110;-1.706;2023-07-02T03:32:01;14.80;99.90
11035;DHT22;5571;48.110;-1.706;2023-07-02T03:34:27;14.80;99.90
11035;DHT22;5571;48.110;-1.706;2023-07-02T03:36:53;14.70;99.90
11035;DHT22;5571;48.110;-1.706;2023-07-02T03:39:19;14.60;99.90
11035;DHT22;5571;48.110;-1.706;2023-07-02T03:41:45;14.70;99.90
11035;DHT22;5571;48.110;-1.706;2023-07-02T03:44:10;14.70;99.90
11035;DHT22;5571;48.110;-1.706;2023-07-02T03:46:36;14.70;99.90
11035;DHT22;5571;48.110;-1.706;2023-07-02T03:49:02;14.70;99.90
11035;DHT22;5571;48.110;-1.706;2023-07-02T03:51:28;14.70;99.90
11035;DHT22;5571;48.110;-1.706;2023-07-02T03:53:54;14.80;99.90
11035;DHT22;5571;48.110;-1.706;2023-07-02T03:56:20;14.70;99.90
11035;DHT22;5571;48.110;-1.706;2023-07-02T03:58:45;14.80;99.90
11035;DHT22;5571;48.110;-1.706;2023-07-02T04:01:11;14.70;99.90
11035;DHT22;5571;48.110;-1.706;2023-07-02T04:03:37;14.70;99.90
11035;DHT22;5571;48.110;-1.706;2023-07-02T04:06:02;14.60;99.90
11035;DHT22;5571;48.110;-1.706;2023-07-02T04:08:31;14.70;99.90
11035;DHT22;5571;48.110;-1.706;2023-07-02T04:10:57;14.70;99.90
11035;DHT22;5571;48.110;-1.706;2023-07-02T04:13:22;14.70;99.90
11035;DHT22;5571;48.110;-1.706;2023-07-02T04:15:48;14.70;99.90
11035;DHT22;5571;48.110;-1.706;2023-07-02T04:18:13;14.70;99.90
11035;DHT22;5571;48.110;-1.706;2023-07-02T04:20:39;14.70;99.90
11035;DHT22;5571;48.110;-1.706;2023-07-02T04:23:05;14.70;99.90
11035;DHT22;5571;48.110;-1.706;2023-07-02T04:25:31;14.60;99.90
11035;DHT22;5571;48.110;-1.706;2023-07-02T04:27:57;14.60;99.90
11035;DHT22;5571;48.110;-1.706;2023-07-02T04:30:24;14.60;99.90
11035;DHT22;5571;48.110;-1.706;2023-07-02T04:32:53;14.50;99.90
11035;DHT22;5571;48.110;-1.706;2023-07-02T04:35:19;14.50;99.90
11035;DHT22;5571;48.110;-1.706;2023-07-02T04:37:45;14.40;99.90
11035;DHT22;5571;48.110;-1.706;2023-07-02T04:40:10;14.30;99.90
11035;DHT22;5571;48.110;-1.706;2023-07-02T04:42:40;14.30;99.90
11035;DHT22;5571;48.110;-1.706;2023-07-02T04:45:07;14.40;99.90
11035;DHT22;5571;48.110;-1.706;2023-07-02T04:47:34;14.40;99.90
11035;DHT22;5571;48.110;-1.706;2023-07-02T04:50:00;14.40;99.90
11035;DHT22;5571;48.110;-1.706;2023-07-02T04:52:26;14.40;99.90
11035;DHT22;5571;48.110;-1.706;2023-07-02T04:54:51;14.40;99.90
11035;DHT22;5571;48.110;-1.706;2023-07-02T04:57:17;14.40;99.90
11035;DHT22;5571;48.110;-1.706;2023-07-02T04:59:42;14.50;99.90
11035;DHT22;5571;48.110;-1.706;2023-07-02T05:02:09;14.40;99.90
11035;DHT22;5571;48.110;-1.706;2023-07-02T05:04:35;14.40;99.90
11035;DHT22;5571;48.110;-1.706;2023-07-02T05:07:03;14.40;99.90
11035;DHT22;5571;48.110;-1.706;2023-07-02T05:09:28;14.40;99.90
11035;DHT22;5571;48.110;-1.706;2023-07-02T05:11:54;14.40;99.90
11035;DHT22;5571;48.110;-1.706;2023-07-02T05:14:19;14.40;99.90
11035;DHT22;5571;48.110;-1.706;2023-07-02T05:16:45;14.50;99.90
11035;DHT22;5571;48.110;-1.706;2023-07-02T05:19:11;14.60;99.90
11035;DHT22;5571;48.110;-1.706;2023-07-02T05:21:36;14.70;99.90
11035;DHT22;5571;48.110;-1.706;2023-07-02T05:24:02;14.80;99.90
11035;DHT22;5571;48.110;-1.706;2023-07-02T05:26:28;15.00;99.90
11035;DHT22;5571;48.110;-1.706;2023-07-02T05:28:54;15.00;99.90
11035;DHT22;5571;48.110;-1.706;2023-07-02T05:31:19;15.10;99.90
11035;DHT22;5571;48.110;-1.706;2023-07-02T05:33:45;15.20;99.90
11035;DHT22;5571;48.110;-1.706;2023-07-02T05:36:11;15.30;99.90
11035;DHT22;5571;48.110;-1.706;2023-07-02T05:38:36;15.30;99.90
11035;DHT22;5571;48.110;-1.706;2023-07-02T05:41:03;15.30;99.90
11035;DHT22;5571;48.110;-1.706;2023-07-02T05:43:29;15.40;99.90
11035;DHT22;5571;48.110;-1.706;2023-07-02T05:45:57;15.50;99.90
11035;DHT22;5571;48.110;-1.706;2023-07-02T05:48:23;15.50;99.90
11035;DHT22;5571;48.110;-1.706;2023-07-02T05:50:48;15.70;99.90
11035;DHT22;5571;48.110;-1.706;2023-07-02T05:53:14;15.60;99.90
11035;DHT22;5571;48.110;-1.706;2023-07-02T05:55:40;15.50;99.90
11035;DHT22;5571;48.110;-1.706;2023-07-02T05:58:07;15.60;99.90
11035;DHT22;5571;48.110;-1.706;2023-07-02T06:00:32;15.70;99.90
11035;DHT22;5571;48.110;-1.706;2023-07-02T06:02:58;15.70;99.90
11035;DHT22;5571;48.110;-1.706;2023-07-02T06:05:23;15.60;99.90
11035;DHT22;5571;48.110;-1.706;2023-07-02T06:07:49;15.60;99.90
11035;DHT22;5571;48.110;-1.706;2023-07-02T06:10:15;15.70;99.90
11035;DHT22;5571;48.110;-1.706;2023-07-02T06:12:40;15.80;99.90
11035;DHT22;5571;48.110;-1.706;2023-07-02T06:15:07;15.80;99.90
11035;DHT22;5571;48.110;-1.706;2023-07-02T06:17:33;15.80;99.90
11035;DHT22;5571;48.110;-1.706;2023-07-02T06:19:58;15.80;99.90
11035;DHT22;5571;48.110;-1.706;2023-07-02T06:22:24;15.90;99.90
11035;DHT22;5571;48.110;-1.706;2023-07-02T06:24:50;16.00;99.90
11035;DHT22;5571;48.110;-1.706;2023-07-02T06:27:15;16.10;99.90
11035;DHT22;5571;48.110;-1.706;2023-07-02T06:29:41;16.10;99.90
11035;DHT22;5571;48.110;-1.706;2023-07-02T06:32:06;16.30;99.90
11035;DHT22;5571;48.110;-1.706;2023-07-02T06:34:32;16.30;99.90
11035;DHT22;5571;48.110;-1.706;2023-07-02T06:36:58;16.40;99.90
11035;DHT22;5571;48.110;-1.706;2023-07-02T06:39:24;16.40;99.90
11035;DHT22;5571;48.110;-1.706;2023-07-02T06:41:49;16.50;99.90
11035;DHT22;5571;48.110;-1.706;2023-07-02T06:44:15;16.50;99.90
11035;DHT22;5571;48.110;-1.706;2023-07-02T06:46:40;16.60;99.90
11035;DHT22;5571;48.110;-1.706;2023-07-02T06:49:06;16.60;99.90
11035;DHT22;5571;48.110;-1.706;2023-07-02T06:51:32;16.60;99.90
11035;DHT22;5571;48.110;-1.706;2023-07-02T06:53:59;16.60;99.90
11035;DHT22;5571;48.110;-1.706;2023-07-02T06:56:25;16.80;99.90
11035;DHT22;5571;48.110;-1.706;2023-07-02T06:58:50;16.80;99.90
11035;DHT22;5571;48.110;-1.706;2023-07-02T07:01:16;16.70;99.90
11035;DHT22;5571;48.110;-1.706;2023-07-02T07:03:42;16.70;99.90
11035;DHT22;5571;48.110;-1.706;2023-07-02T07:06:07;16.70;99.90
11035;DHT22;5571;48.110;-1.706;2023-07-02T07:08:33;16.80;99.90
11035;DHT22;5571;48.110;-1.706;2023-07-02T07:11:02;16.90;99.90
11035;DHT22;5571;48.110;-1.706;2023-07-02T07:13:27;16.90;99.90
11035;DHT22;5571;48.110;-1.706;2023-07-02T07:15:54;17.10;99.90
11035;DHT22;5571;48.110;-1.706;2023-07-02T07:18:19;17.00;99.90
11035;DHT22;5571;48.110;-1.706;2023-07-02T07:20:45;17.10;99.90
11035;DHT22;5571;48.110;-1.706;2023-07-02T07:23:10;17.20;99.90
11035;DHT22;5571;48.110;-1.706;2023-07-02T07:25:36;17.30;99.90
11035;DHT22;5571;48.110;-1.706;2023-07-02T07:28:02;17.50;99.90
11035;DHT22;5571;48.110;-1.706;2023-07-02T07:30:27;17.60;99.90
11035;DHT22;5571;48.110;-1.706;2023-07-02T07:32:53;17.50;99.90
11035;DHT22;5571;48.110;-1.706;2023-07-02T07:35:20;17.50;99.90
11035;DHT22;5571;48.110;-1.706;2023-07-02T07:37:47;17.40;99.90
11035;DHT22;5571;48.110;-1.706;2023-07-02T07:40:13;17.60;99.90
11035;DHT22;5571;48.110;-1.706;2023-07-02T07:42:40;17.70;99.90
11035;DHT22;5571;48.110;-1.706;2023-07-02T07:45:06;17.80;99.90
11035;DHT22;5571;48.110;-1.706;2023-07-02T07:47:31;17.90;99.90
11035;DHT22;5571;48.110;-1.706;2023-07-02T07:49:57;18.00;99.90
11035;DHT22;5571;48.110;-1.706;2023-07-02T07:52:23;18.20;99.90
11035;DHT22;5571;48.110;-1.706;2023-07-02T07:54:48;18.20;99.90
11035;DHT22;5571;48.110;-1.706;2023-07-02T07:57:14;18.30;99.90
11035;DHT22;5571;48.110;-1.706;2023-07-02T07:59:40;18.30;99.90
11035;DHT22;5571;48.110;-1.706;2023-07-02T08:02:06;18.40;99.90
11035;DHT22;5571;48.110;-1.706;2023-07-02T08:04:31;18.40;99.90
11035;DHT22;5571;48.110;-1.706;2023-07-02T08:06:57;18.40;99.90
11035;DHT22;5571;48.110;-1.706;2023-07-02T08:09:23;18.40;99.90
11035;DHT22;5571;48.110;-1.706;2023-07-02T08:11:50;18.30;99.90
11035;DHT22;5571;48.110;-1.706;2023-07-02T08:14:16;18.20;99.90
11035;DHT22;5571;48.110;-1.706;2023-07-02T08:16:43;18.20;99.90
11035;DHT22;5571;48.110;-1.706;2023-07-02T08:19:10;18.20;99.90
11035;DHT22;5571;48.110;-1.706;2023-07-02T08:21:35;18.20;99.90
11035;DHT22;5571;48.110;-1.706;2023-07-02T08:24:01;18.20;99.90
11035;DHT22;5571;48.110;-1.706;2023-07-02T08:26:27;18.30;99.90
11035;DHT22;5571;48.110;-1.706;2023-07-02T08:28:52;18.20;99.90
11035;DHT22;5571;48.110;-1.706;2023-07-02T08:31:18;18.20;99.90
11035;DHT22;5571;48.110;-1.706;2023-07-02T08:33:43;18.50;99.90
11035;DHT22;5571;48.110;-1.706;2023-07-02T08:36:09;18.90;99.90
11035;DHT22;5571;48.110;-1.706;2023-07-02T08:38:35;18.90;99.90
11035;DHT22;5571;48.110;-1.706;2023-07-02T08:41:00;19.10;99.90
11035;DHT22;5571;48.110;-1.706;2023-07-02T08:43:26;19.20;99.90
11035;DHT22;5571;48.110;-1.706;2023-07-02T08:45:55;19.20;99.90
11035;DHT22;5571;48.110;-1.706;2023-07-02T08:48:21;19.10;99.90
11035;DHT22;5571;48.110;-1.706;2023-07-02T08:50:49;19.00;99.90
11035;DHT22;5571;48.110;-1.706;2023-07-02T08:53:15;18.90;99.90
11035;DHT22;5571;48.110;-1.706;2023-07-02T08:55:41;18.70;99.90
11035;DHT22;5571;48.110;-1.706;2023-07-02T08:58:07;18.80;99.90
11035;DHT22;5571;48.110;-1.706;2023-07-02T09:00:32;18.70;99.90
11035;DHT22;5571;48.110;-1.706;2023-07-02T09:03:13;18.50;99.90
11035;DHT22;5571;48.110;-1.706;2023-07-02T09:05:51;18.50;99.90
11035;DHT22;5571;48.110;-1.706;2023-07-02T09:08:27;18.50;99.90
11035;DHT22;5571;48.110;-1.706;2023-07-02T09:10:54;18.60;99.90
11035;DHT22;5571;48.110;-1.706;2023-07-02T09:13:19;18.80;99.90
11035;DHT22;5571;48.110;-1.706;2023-07-02T09:15:45;19.10;99.90
11035;DHT22;5571;48.110;-1.706;2023-07-02T09:18:22;19.50;99.90
11035;DHT22;5571;48.110;-1.706;2023-07-02T09:20:54;19.80;99.90
11035;DHT22;5571;48.110;-1.706;2023-07-02T09:23:21;20.10;99.90
11035;DHT22;5571;48.110;-1.706;2023-07-02T09:25:46;20.20;99.90
11035;DHT22;5571;48.110;-1.706;2023-07-02T09:28:19;20.20;99.90
11035;DHT22;5571;48.110;-1.706;2023-07-02T09:30:55;20.10;99.90
11035;DHT22;5571;48.110;-1.706;2023-07-02T09:33:23;20.00;99.90
11035;DHT22;5571;48.110;-1.706;2023-07-02T09:35:49;19.90;99.90
11035;DHT22;5571;48.110;-1.706;2023-07-02T09:38:18;19.30;99.90
11035;DHT22;5571;48.110;-1.706;2023-07-02T09:40:52;19.20;99.90
11035;DHT22;5571;48.110;-1.706;2023-07-02T09:43:18;19.10;99.90
11035;DHT22;5571;48.110;-1.706;2023-07-02T09:45:46;19.00;99.90
11035;DHT22;5571;48.110;-1.706;2023-07-02T09:48:13;19.20;99.90
11035;DHT22;5571;48.110;-1.706;2023-07-02T09:50:47;19.30;99.90
11035;DHT22;5571;48.110;-1.706;2023-07-02T09:53:14;19.30;99.90
11035;DHT22;5571;48.110;-1.706;2023-07-02T09:55:42;19.40;99.90
11035;DHT22;5571;48.110;-1.706;2023-07-02T09:58:08;19.50;99.90
11035;DHT22;5571;48.110;-1.706;2023-07-02T10:00:34;19.80;99.90
11035;DHT22;5571;48.110;-1.706;2023-07-02T10:03:00;19.90;99.90
11035;DHT22;5571;48.110;-1.706;2023-07-02T10:05:30;19.80;99.90
11035;DHT22;5571;48.110;-1.706;2023-07-02T10:08:14;19.90;99.90
11035;DHT22;5571;48.110;-1.706;2023-07-02T10:10:42;19.90;99.90
11035;DHT22;5571;48.110;-1.706;2023-07-02T10:13:08;19.90;99.90
11035;DHT22;5571;48.110;-1.706;2023-07-02T10:15:34;19.90;99.90
11035;DHT22;5571;48.110;-1.706;2023-07-02T10:18:03;19.90;99.90
11035;DHT22;5571;48.110;-1.706;2023-07-02T10:20:38;19.90;99.90
11035;DHT22;5571;48.110;-1.706;2023-07-02T10:23:04;20.10;99.90
11035;DHT22;5571;48.110;-1.706;2023-07-02T10:25:32;20.10;99.90
11035;DHT22;5571;48.110;-1.706;2023-07-02T10:28:00;20.00;99.90
11035;DHT22;5571;48.110;-1.706;2023-07-02T10:30:37;19.90;99.90
11035;DHT22;5571;48.110;-1.706;2023-07-02T10:33:16;20.20;99.90
11035;DHT22;5571;48.110;-1.706;2023-07-02T10:35:44;20.30;99.90
11035;DHT22;5571;48.110;-1.706;2023-07-02T10:38:20;20.50;99.90
11035;DHT22;5571;48.110;-1.706;2023-07-02T10:40:46;20.40;99.90
11035;DHT22;5571;48.110;-1.706;2023-07-02T10:43:12;20.60;99.90
11035;DHT22;5571;48.110;-1.706;2023-07-02T10:45:38;20.70;99.90
11035;DHT22;5571;48.110;-1.706;2023-07-02T10:48:13;20.90;99.90
11035;DHT22;5571;48.110;-1.706;2023-07-02T10:50:39;20.80;99.90
11035;DHT22;5571;48.110;-1.706;2023-07-02T10:53:05;20.90;99.90
11035;DHT22;5571;48.110;-1.706;2023-07-02T10:55:30;20.90;99.90
11035;DHT22;5571;48.110;-1.706;2023-07-02T10:58:05;20.90;99.90
11035;DHT22;5571;48.110;-1.706;2023-07-02T11:00:32;20.90;99.90
11035;DHT22;5571;48.110;-1.706;2023-07-02T11:02:58;20.80;99.90
11035;DHT22;5571;48.110;-1.706;2023-07-02T11:05:24;20.60;99.90
11035;DHT22;5571;48.110;-1.706;2023-07-02T11:07:50;20.50;99.90
11035;DHT22;5571;48.110;-1.706;2023-07-02T11:10:23;20.50;99.90
11035;DHT22;5571;48.110;-1.706;2023-07-02T11:12:49;20.50;99.90
11035;DHT22;5571;48.110;-1.706;2023-07-02T11:15:15;20.60;99.90
11035;DHT22;5571;48.110;-1.706;2023-07-02T11:17:43;20.60;99.90
11035;DHT22;5571;48.110;-1.706;2023-07-02T11:20:10;20.60;99.90
11035;DHT22;5571;48.110;-1.706;2023-07-02T11:22:36;20.40;99.90
11035;DHT22;5571;48.110;-1.706;2023-07-02T11:25:19;20.40;99.90
11035;DHT22;5571;48.110;-1.706;2023-07-02T11:27:48;20.40;99.90
11035;DHT22;5571;48.110;-1.706;2023-07-02T11:30:13;20.40;99.90
11035;DHT22;5571;48.110;-1.706;2023-07-02T11:32:55;20.30;99.90
11035;DHT22;5571;48.110;-1.706;2023-07-02T11:35:21;20.40;99.90
11035;DHT22;5571;48.110;-1.706;2023-07-02T11:37:48;20.50;99.90
11035;DHT22;5571;48.110;-1.706;2023-07-02T11:40:19;20.50;99.90
11035;DHT22;5571;48.110;-1.706;2023-07-02T11:42:45;20.40;99.90
11035;DHT22;5571;48.110;-1.706;2023-07-02T11:45:11;20.40;99.90
11035;DHT22;5571;48.110;-1.706;2023-07-02T11:47:38;20.40;99.90
11035;DHT22;5571;48.110;-1.706;2023-07-02T11:50:06;20.30;99.90
11035;DHT22;5571;48.110;-1.706;2023-07-02T11:52:31;20.20;99.90
11035;DHT22;5571;48.110;-1.706;2023-07-02T11:54:57;20.20;99.90
11035;DHT22;5571;48.110;-1.706;2023-07-02T11:57:22;20.10;99.90
11035;DHT22;5571;48.110;-1.706;2023-07-02T11:59:48;20.00;99.90
11035;DHT22;5571;48.110;-1.706;2023-07-02T12:02:15;20.00;99.90
11035;DHT22;5571;48.110;-1.706;2023-07-02T12:04:40;20.00;99.90
11035;DHT22;5571;48.110;-1.706;2023-07-02T12:07:06;20.00;99.90
11035;DHT22;5571;48.110;-1.706;2023-07-02T12:09:31;20.10;99.90
11035;DHT22;5571;48.110;-1.706;2023-07-02T12:11:57;20.10;99.90
11035;DHT22;5571;48.110;-1.706;2023-07-02T12:14:23;20.00;99.90
11035;DHT22;5571;48.110;-1.706;2023-07-02T12:16:48;20.10;99.90
11035;DHT22;5571;48.110;-1.706;2023-07-02T12:19:14;20.10;99.90
11035;DHT22;5571;48.110;-1.706;2023-07-02T12:21:39;20.10;99.90
11035;DHT22;5571;48.110;-1.706;2023-07-02T12:24:05;20.00;99.90
11035;DHT22;5571;48.110;-1.706;2023-07-02T12:26:37;20.00;99.90
11035;DHT22;5571;48.110;-1.706;2023-07-02T12:29:04;20.00;99.90
11035;DHT22;5571;48.110;-1.706;2023-07-02T12:31:30;19.90;99.90
11035;DHT22;5571;48.110;-1.706;2023-07-02T12:33:56;20.00;99.90
11035;DHT22;5571;48.110;-1.706;2023-07-02T12:36:22;20.00;99.90
11035;DHT22;5571;48.110;-1.706;2023-07-02T12:38:47;19.90;99.90
11035;DHT22;5571;48.110;-1.706;2023-07-02T12:41:13;19.90;99.90
11035;DHT22;5571;48.110;-1.706;2023-07-02T12:43:38;19.80;99.90
11035;DHT22;5571;48.110;-1.706;2023-07-02T12:46:05;19.80;99.90
11035;DHT22;5571;48.110;-1.706;2023-07-02T12:48:32;19.90;99.90
11035;DHT22;5571;48.110;-1.706;2023-07-02T12:51:00;20.10;99.90
11035;DHT22;5571;48.110;-1.706;2023-07-02T12:53:26;20.10;99.90
11035;DHT22;5571;48.110;-1.706;2023-07-02T12:55:53;20.10;99.90
11035;DHT22;5571;48.110;-1.706;2023-07-02T12:58:18;20.30;99.90
11035;DHT22;5571;48.110;-1.706;2023-07-02T13:00:44;20.20;99.90
11035;DHT22;5571;48.110;-1.706;2023-07-02T13:03:12;20.30;99.90
11035;DHT22;5571;48.110;-1.706;2023-07-02T13:05:38;20.40;99.90
11035;DHT22;5571;48.110;-1.706;2023-07-02T13:08:04;20.40;99.90
11035;DHT22;5571;48.110;-1.706;2023-07-02T13:10:30;20.40;99.90
11035;DHT22;5571;48.110;-1.706;2023-07-02T13:12:56;20.60;99.90
11035;DHT22;5571;48.110;-1.706;2023-07-02T13:15:22;20.60;99.90
11035;DHT22;5571;48.110;-1.706;2023-07-02T13:17:48;20.70;99.90
11035;DHT22;5571;48.110;-1.706;2023-07-02T13:20:14;20.70;99.90
11035;DHT22;5571;48.110;-1.706;2023-07-02T13:22:40;20.70;99.90
11035;DHT22;5571;48.110;-1.706;2023-07-02T13:25:06;20.90;99.90
11035;DHT22;5571;48.110;-1.706;2023-07-02T13:27:32;20.90;99.90
11035;DHT22;5571;48.110;-1.706;2023-07-02T13:29:58;20.90;99.90
11035;DHT22;5571;48.110;-1.706;2023-07-02T13:32:24;20.90;99.90
11035;DHT22;5571;48.110;-1.706;2023-07-02T13:34:50;20.90;99.90
11035;DHT22;5571;48.110;-1.706;2023-07-02T13:37:15;20.80;99.90
11035;DHT22;5571;48.110;-1.706;2023-07-02T13:39:45;20.70;99.90
11035;DHT22;5571;48.110;-1.706;2023-07-02T13:42:11;20.60;99.90
11035;DHT22;5571;48.110;-1.706;2023-07-02T13:44:36;20.60;99.90
11035;DHT22;5571;48.110;-1.706;2023-07-02T13:47:02;20.60;99.90
11035;DHT22;5571;48.110;-1.706;2023-07-02T13:49:28;20.60;99.90
11035;DHT22;5571;48.110;-1.706;2023-07-02T13:51:53;20.60;99.90
11035;DHT22;5571;48.110;-1.706;2023-07-02T13:54:19;20.50;99.90
11035;DHT22;5571;48.110;-1.706;2023-07-02T13:56:46;20.40;99.90
11035;DHT22;5571;48.110;-1.706;2023-07-02T13:59:12;20.30;99.90
11035;DHT22;5571;48.110;-1.706;2023-07-02T14:01:37;20.30;99.90
11035;DHT22;5571;48.110;-1.706;2023-07-02T14:04:04;20.20;99.90
11035;DHT22;5571;48.110;-1.706;2023-07-02T14:06:29;20.30;99.90
11035;DHT22;5571;48.110;-1.706;2023-07-02T14:08:55;20.30;99.90
11035;DHT22;5571;48.110;-1.706;2023-07-02T14:11:23;20.40;99.90
11035;DHT22;5571;48.110;-1.706;2023-07-02T14:13:48;20.30;99.90
11035;DHT22;5571;48.110;-1.706;2023-07-02T14:16:14;20.40;99.90
11035;DHT22;5571;48.110;-1.706;2023-07-02T14:18:40;20.40;99.90
11035;DHT22;5571;48.110;-1.706;2023-07-02T14:21:05;20.50;99.90
11035;DHT22;5571;48.110;-1.706;2023-07-02T14:23:31;20.50;99.90
11035;DHT22;5571;48.110;-1.706;2023-07-02T14:25:57;20.40;99.90
11035;DHT22;5571;48.110;-1.706;2023-07-02T14:28:23;20.40;99.90
11035;DHT22;5571;48.110;-1.706;2023-07-02T14:30:57;20.40;99.90
11035;DHT22;5571;48.110;-1.706;2023-07-02T14:33:24;20.40;99.90
11035;DHT22;5571;48.110;-1.706;2023-07-02T14:35:50;20.30;99.90
11035;DHT22;5571;48.110;-1.706;2023-07-02T14:38:15;20.30;99.90
11035;DHT22;5571;48.110;-1.706;2023-07-02T14:40:41;20.30;99.90
11035;DHT22;5571;48.110;-1.706;2023-07-02T14:43:06;20.20;99.90
11035;DHT22;5571;48.110;-1.706;2023-07-02T14:45:32;20.10;99.90
11035;DHT22;5571;48.110;-1.706;2023-07-02T14:47:58;20.20;99.90
11035;DHT22;5571;48.110;-1.706;2023-07-02T14:50:26;20.10;99.90
11035;DHT22;5571;48.110;-1.706;2023-07-02T14:52:52;20.10;99.90
11035;DHT22;5571;48.110;-1.706;2023-07-02T14:55:18;20.10;99.90
11035;DHT22;5571;48.110;-1.706;2023-07-02T14:57:43;20.10;99.90
11035;DHT22;5571;48.110;-1.706;2023-07-02T15:00:09;20.10;99.90
11035;DHT22;5571;48.110;-1.706;2023-07-02T15:02:35;20.10;99.90
11035;DHT22;5571;48.110;-1.706;2023-07-02T15:05:01;20.10;99.90
11035;DHT22;5571;48.110;-1.706;2023-07-02T15:07:28;20.20;99.90
11035;DHT22;5571;48.110;-1.706;2023-07-02T15:09:53;20.20;99.90
11035;DHT22;5571;48.110;-1.706;2023-07-02T15:12:19;20.20;99.90
11035;DHT22;5571;48.110;-1.706;2023-07-02T15:14:45;20.20;99.90
11035;DHT22;5571;48.110;-1.706;2023-07-02T15:17:10;20.20;99.90
11035;DHT22;5571;48.110;-1.706;2023-07-02T15:19:36;20.30;99.90
11035;DHT22;5571;48.110;-1.706;2023-07-02T15:22:02;20.30;99.90
11035;DHT22;5571;48.110;-1.706;2023-07-02T15:24:28;20.30;99.90
11035;DHT22;5571;48.110;-1.706;2023-07-02T15:26:53;20.30;99.90